Time;durP1;ratioP1;P1;durP2;ratioP2;P2;SDS_P1;SDS_P2;PMS_P1;PMS_P2;Temp;Humidity;BMP_temperature;BMP_pressure;BME280_temperature;BME280_humidity;BME280_pressure;Samples;Min_cycle;Max_cycle;Signal;HPM_P1;HPM_P2
2023/06/05 05:37:35;;;;;;;;;11.00;8.67;;;;;20.27;47.94;101523.78;5049711;27;46461;-66
2023/06/05 05:40:01;;;;;;;;;10.00;8.00;;;;;20.35;47.82;101518.63;5032830;28;46177;-66
2023/06/05 05:42:26;;;;;;;;;9.33;8.33;;;;;20.47;47.15;101515.91;5046742;28;45536;-66
2023/06/05 05:44:51;;;;;;;;;11.67;8.33;;;;;20.60;47.40;101515.72;5039470;28;57155;-67
2023/06/05 05:47:16;;;;;;;;;7.00;7.00;;;;;20.75;46.66;101518.94;5045783;28;48900;-66
2023/06/05 05:49:42;;;;;;;;;8.67;8.67;;;;;20.87;46.60;101523.31;5037124;28;45619;-66
2023/06/05 05:52:08;;;;;;;;;10.33;8.33;;;;;21.00;46.49;101522.25;5032920;28;45546;-67
2023/06/05 05:54:33;;;;;;;;;10.33;8.00;;;;;21.11;46.51;101513.22;5032003;28;45435;-66
2023/06/05 05:56:59;;;;;;;;;8.00;8.00;;;;;21.22;46.26;101523.97;5036367;28;55469;-66
2023/06/05 05:59:24;;;;;;;;;9.33;8.00;;;;;21.32;45.81;101524.88;5039488;28;45400;-67
2023/06/05 06:01:50;;;;;;;;;8.00;8.00;;;;;21.40;45.97;101526.88;5038765;28;45510;-66
2023/06/05 06:04:19;;;;;;;;;9.00;9.00;;;;;21.48;45.94;101528.91;5043898;28;45550;-67
2023/06/05 06:06:47;;;;;;;;;8.00;7.33;;;;;21.54;45.73;101528.34;5048009;28;46412;-69
2023/06/05 06:09:14;;;;;;;;;9.67;9.33;;;;;21.60;45.32;101526.97;5045326;28;45377;-68
2023/06/05 06:11:41;;;;;;;;;8.67;7.67;;;;;21.66;45.34;101530.97;5037281;28;45540;-68
2023/06/05 06:14:09;;;;;;;;;11.67;10.67;;;;;21.73;45.21;101532.16;5032303;28;45467;-68
2023/06/05 06:16:36;;;;;;;;;10.33;9.67;;;;;21.77;44.64;101530.88;5035438;28;46064;-68
2023/06/05 06:19:01;;;;;;;;;8.00;7.00;;;;;21.81;44.61;101532.31;5034906;28;45667;-68
2023/06/05 06:21:27;;;;;;;;;9.00;8.00;;;;;21.89;45.76;101537.03;5045032;28;45392;-68
2023/06/05 06:23:52;;;;;;;;;8.67;5.00;;;;;21.98;45.69;101538.03;5042779;28;45681;-68
2023/06/05 06:26:17;;;;;;;;;9.00;7.67;;;;;22.09;45.55;101543.34;5045622;28;46183;-68
2023/06/05 06:28:43;;;;;;;;;5.00;5.00;;;;;22.20;45.40;101547.75;5047992;28;45625;-69
2023/06/05 06:31:08;;;;;;;;;7.00;7.00;;;;;22.29;45.50;101546.06;5039807;28;45580;-68
2023/06/05 06:33:36;;;;;;;;;8.33;8.00;;;;;22.36;45.21;101541.78;5047525;28;45328;-68
2023/06/05 06:36:02;;;;;;;;;11.33;6.00;;;;;22.44;44.83;101542.97;5047571;28;46193;-69
2023/06/05 06:38:30;;;;;;;;;7.00;7.00;;;;;22.49;45.14;101537.97;5047784;28;45701;-68
2023/06/05 06:40:59;;;;;;;;;6.33;6.33;;;;;22.55;45.24;101542.84;5045595;28;45391;-68
2023/06/05 06:43:24;;;;;;;;;8.00;8.00;;;;;22.60;44.45;101540.56;5044494;28;45559;-68
2023/06/05 06:45:52;;;;;;;;;8.33;7.00;;;;;22.66;44.69;101539.13;5045887;28;46158;-68
2023/06/05 06:48:18;;;;;;;;;9.00;8.00;;;;;22.71;44.73;101544.09;5035171;28;45296;-68
2023/06/05 06:50:43;;;;;;;;;6.33;6.33;;;;;22.73;44.52;101539.41;5034342;28;45488;-69
2023/06/05 06:53:09;;;;;;;;;6.00;6.00;;;;;22.77;44.33;101549.78;5030599;28;45523;-68
2023/06/05 06:55:34;;;;;;;;;7.00;7.00;;;;;22.80;44.48;101547.81;5032735;28;50114;-68
2023/06/05 06:57:59;;;;;;;;;6.33;6.33;;;;;22.86;44.22;101549.94;5028684;28;45503;-69
2023/06/05 07:00:25;;;;;;;;;9.33;9.33;;;;;22.85;43.67;101553.66;5022489;28;45524;-68
2023/06/05 07:02:51;;;;;;;;;9.00;8.67;;;;;22.84;43.80;101551.94;5032279;28;45446;-69
2023/06/05 07:05:17;;;;;;;;;12.00;10.33;;;;;22.82;44.04;101548.50;5039011;28;45492;-68
2023/06/05 07:07:43;;;;;;;;;9.67;9.33;;;;;22.80;43.57;101554.06;5031411;28;45478;-66
2023/06/05 07:10:08;;;;;;;;;12.67;12.00;;;;;22.73;43.68;101555.66;5024521;28;45556;-66
2023/06/05 07:12:34;;;;;;;;;9.67;9.00;;;;;22.71;43.69;101552.22;5019885;28;45447;-66
2023/06/05 07:14:59;;;;;;;;;10.33;9.00;;;;;22.70;44.02;101555.94;5017132;28;46419;-66
2023/06/05 07:17:27;;;;;;;;;9.33;9.33;;;;;22.63;43.34;101550.22;5018661;28;45656;-68
2023/06/05 07:19:52;;;;;;;;;13.00;11.33;;;;;22.61;43.30;101553.06;5020402;28;45726;-68
2023/06/05 07:22:17;;;;;;;;;8.67;8.00;;;;;22.57;43.45;101554.38;5022022;28;45530;-69
2023/06/05 07:24:43;;;;;;;;;10.67;9.00;;;;;22.54;43.24;101556.50;5028583;28;46856;-69
2023/06/05 07:27:09;;;;;;;;;8.67;8.00;;;;;22.52;43.46;101559.31;5033930;28;45531;-69
2023/06/05 07:29:35;;;;;;;;;9.00;9.00;;;;;22.53;43.28;101554.75;5033316;28;45474;-70
2023/06/05 07:32:02;;;;;;;;;10.33;8.33;;;;;22.51;43.25;101560.31;5032959;28;45426;-68
2023/06/05 07:34:28;;;;;;;;;8.67;8.67;;;;;22.48;43.20;101555.22;5029563;28;45498;-68
2023/06/05 07:36:55;;;;;;;;;12.67;10.00;;;;;22.48;43.17;101560.63;5033196;28;46468;-66
2023/06/05 07:39:21;;;;;;;;;12.00;11.00;;;;;22.45;43.05;101550.06;5033578;28;45802;-66
2023/06/05 07:41:46;;;;;;;;;12.67;10.67;;;;;22.45;43.20;101552.78;5032900;28;45477;-66
2023/06/05 07:44:15;;;;;;;;;6.00;6.00;;;;;22.44;43.11;101557.31;5042010;28;46319;-66
2023/06/05 07:46:42;;;;;;;;;12.67;10.33;;;;;22.44;43.25;101557.31;5032723;28;45443;-68
2023/06/05 07:49:08;;;;;;;;;9.67;6.67;;;;;22.44;43.16;101556.47;5033325;28;45489;-68
2023/06/05 07:51:35;;;;;;;;;13.67;9.33;;;;;22.43;43.21;101566.44;5027029;28;45432;-69
2023/06/05 07:54:02;;;;;;;;;10.33;10.33;;;;;22.38;42.94;101549.78;5036447;28;46578;-70
2023/06/05 07:56:28;;;;;;;;;8.00;8.00;;;;;22.41;43.41;101548.63;5038567;28;45726;-69
2023/06/05 07:58:53;;;;;;;;;10.33;9.00;;;;;22.42;43.23;101551.22;5031897;28;45426;-69
2023/06/05 08:01:20;;;;;;;;;10.00;8.00;;;;;22.35;44.01;101534.69;5033197;28;45559;-69
2023/06/05 08:03:46;;;;;;;;;8.00;7.00;;;;;22.45;44.48;101550.06;5032203;28;45755;-68
2023/06/05 08:06:11;;;;;;;;;8.33;8.00;;;;;22.43;43.87;101538.56;5040473;28;45561;-66
2023/06/05 08:08:37;;;;;;;;;6.33;6.00;;;;;22.57;44.17;101545.41;5040391;28;45484;-66
2023/06/05 08:11:02;;;;;;;;;8.00;6.00;;;;;22.60;44.14;101539.72;5037265;28;45407;-66
2023/06/05 08:13:28;;;;;;;;;10.00;8.67;;;;;22.58;43.77;101530.88;5032739;28;46360;-67
2023/06/05 08:15:53;;;;;;;;;9.00;7.00;;;;;22.65;43.81;101523.91;5025381;28;45490;-66
2023/06/05 08:18:18;;;;;;;;;8.33;7.00;;;;;22.68;43.64;101517.34;5020224;28;45353;-67
2023/06/05 08:20:44;;;;;;;;;8.33;8.33;;;;;22.77;44.00;101530.03;5033598;28;45471;-66
2023/06/05 08:23:10;;;;;;;;;10.00;8.00;;;;;22.80;43.87;101520.75;5032912;28;45526;-66
2023/06/05 08:25:35;;;;;;;;;9.67;9.00;;;;;22.86;43.56;101522.88;5033283;28;45380;-66
2023/06/05 08:28:01;;;;;;;;;6.67;6.67;;;;;22.97;43.42;101533.53;5024272;28;45393;-66
2023/06/05 08:30:26;;;;;;;;;6.33;6.33;;;;;22.93;43.62;101513.16;5032343;28;45365;-66
2023/06/05 08:32:51;;;;;;;;;10.00;5.67;;;;;22.98;43.56;101518.16;5032046;28;45472;-66
2023/06/05 08:35:17;;;;;;;;;8.33;8.33;;;;;23.05;42.99;101521.13;5031463;28;45530;-65
2023/06/05 08:37:42;;;;;;;;;7.00;7.00;;;;;23.07;43.02;101517.28;5024226;28;45373;-65
2023/06/05 08:40:10;;;;;;;;;8.33;6.00;;;;;23.12;43.53;101516.81;5029318;28;45483;-64
2023/06/05 08:42:40;;;;;;;;;9.67;8.00;;;;;23.14;43.49;101517.53;5029918;28;45710;-65
2023/06/05 08:45:07;;;;;;;;;6.33;6.33;;;;;23.25;43.21;101532.72;5031481;28;45431;-65
2023/06/05 08:47:36;;;;;;;;;10.33;8.00;;;;;23.17;43.41;101514.50;5031958;28;45430;-65
2023/06/05 08:50:04;;;;;;;;;7.33;7.33;;;;;23.31;43.50;101529.47;5032229;28;45513;-66
2023/06/05 08:52:34;;;;;;;;;9.33;7.00;;;;;23.25;43.37;101519.19;5032535;28;47385;-66
2023/06/05 08:55:00;;;;;;;;;7.33;7.00;;;;;23.37;43.32;101523.47;5025089;28;45530;-65
2023/06/05 08:57:28;;;;;;;;;6.00;5.33;;;;;23.41;43.43;101533.00;5032732;28;45493;-66
2023/06/05 08:59:54;;;;;;;;;7.33;6.33;;;;;23.37;43.58;101512.63;5031426;28;45427;-66
2023/06/05 09:02:19;;;;;;;;;7.00;6.00;;;;;23.38;43.92;101511.63;5022185;28;45970;-66
2023/06/05 09:04:44;;;;;;;;;6.33;6.33;;;;;23.48;43.72;101517.00;5022982;28;45517;-66
2023/06/05 09:07:11;;;;;;;;;5.00;5.00;;;;;23.50;43.80;101511.44;5034290;28;45356;-66
2023/06/05 09:09:37;;;;;;;;;6.33;6.33;;;;;23.69;43.85;101538.44;5031785;28;45559;-66
2023/06/05 09:12:07;;;;;;;;;10.33;8.00;;;;;23.57;43.02;101506.28;5042245;28;45436;-68
2023/06/05 09:14:33;;;;;;;;;8.67;8.67;;;;;23.57;42.25;101503.56;5032205;28;45467;-68
2023/06/05 09:17:00;;;;;;;;;7.33;7.33;;;;;23.61;42.36;101510.38;5023946;28;45895;-69
2023/06/05 09:19:36;;;;;;;;;6.67;6.67;;;;;23.64;42.41;101507.38;5038551;28;45591;-66
2023/06/05 09:22:01;;;;;;;;;5.00;5.00;;;;;23.61;42.41;101499.53;5027497;28;46294;-66
2023/06/05 09:24:29;;;;;;;;;9.33;7.33;;;;;23.62;42.23;101503.97;5039273;28;45393;-66
2023/06/05 09:26:56;;;;;;;;;8.33;6.33;;;;;23.77;41.94;101516.00;5028530;28;45431;-65
2023/06/05 09:29:25;;;;;;;;;9.33;8.00;;;;;23.77;42.48;101524.16;5021228;28;45819;-65
2023/06/05 09:31:53;;;;;;;;;7.67;6.00;;;;;23.69;42.60;101502.34;5028680;28;46412;-65
2023/06/05 09:34:23;;;;;;;;;8.00;8.00;;;;;23.80;42.18;101514.84;5029066;28;45439;-70
2023/06/05 09:36:48;;;;;;;;;8.33;8.00;;;;;23.71;42.07;101497.66;5025582;28;45464;-68
2023/06/05 09:39:18;;;;;;;;;7.00;7.00;;;;;23.72;42.24;101493.94;5027936;28;45472;-67
2023/06/05 09:41:45;;;;;;;;;11.00;8.00;;;;;23.78;41.95;101501.44;5022527;28;45585;-67
2023/06/05 09:44:11;;;;;;;;;8.67;6.67;;;;;23.72;42.16;101488.50;5022330;28;45604;-68
2023/06/05 09:47:00;;;;;;;;;6.33;5.00;;;;;23.81;42.11;101492.16;5027398;28;45415;-68
2023/06/05 09:49:45;;;;;;;;;5.67;4.67;;;;;23.87;42.19;101498.84;5031396;28;45530;-68
2023/06/05 09:52:12;;;;;;;;;10.67;8.67;;;;;23.82;42.03;101494.72;5021282;28;46259;-70
2023/06/05 09:54:41;;;;;;;;;9.33;8.33;;;;;23.84;42.16;101486.44;5030970;28;45463;-70
2023/06/05 09:57:10;;;;;;;;;6.67;6.67;;;;;23.86;42.23;101484.41;5020611;28;45420;-66
2023/06/05 09:59:45;;;;;;;;;7.67;7.67;;;;;23.94;42.25;101506.19;5025255;28;45399;-66
2023/06/05 10:02:15;;;;;;;;;6.00;5.33;;;;;23.87;41.67;101490.69;5030115;28;45449;-66
2023/06/05 10:04:46;;;;;;;;;7.33;6.33;;;;;23.93;42.21;101490.09;5029679;28;45609;-66
2023/06/05 10:07:12;;;;;;;;;7.33;7.00;;;;;23.95;41.84;101488.09;5021658;28;45545;-67
2023/06/05 10:09:39;;;;;;;;;5.67;5.67;;;;;24.01;42.06;101497.44;5028977;28;45531;-67
2023/06/05 10:12:07;;;;;;;;;7.33;6.33;;;;;23.94;41.96;101489.94;5024669;28;45547;-67
2023/06/05 10:14:36;;;;;;;;;8.00;8.00;;;;;24.05;41.93;101498.84;5029075;28;45475;-66
2023/06/05 10:17:02;;;;;;;;;6.33;6.33;;;;;24.11;42.19;101517.25;5024167;28;45525;-66
2023/06/05 10:19:28;;;;;;;;;9.33;8.67;;;;;24.03;41.73;101482.72;5021260;28;45564;-66
2023/06/05 10:21:54;;;;;;;;;7.33;7.33;;;;;24.12;42.29;101497.28;5022477;28;45456;-66
2023/06/05 10:24:35;;;;;;;;;6.00;6.00;;;;;24.01;41.92;101479.31;5033258;28;45533;-66
2023/06/05 10:27:21;;;;;;;;;7.33;7.00;;;;;24.03;42.27;101485.44;5030185;28;45591;-67
2023/06/05 10:30:08;;;;;;;;;7.00;7.00;;;;;24.17;41.89;101497.66;5041430;28;45536;-67
2023/06/05 10:33:12;;;;;;;;;9.00;6.00;;;;;24.06;41.99;101482.44;5032349;28;46482;-67
2023/06/05 10:36:00;;;;;;;;;12.00;10.00;;;;;24.12;42.26;101485.56;5015999;28;45416;-67
2023/06/05 10:38:27;;;;;;;;;8.00;6.00;;;;;24.13;42.43;101471.84;5025328;28;45453;-67
2023/06/05 10:40:58;;;;;;;;;6.00;6.00;;;;;24.16;42.56;101473.41;5024006;28;45586;-67
2023/06/05 10:43:28;;;;;;;;;6.00;6.00;;;;;24.28;42.87;101496.56;5021354;28;45615;-66
2023/06/05 10:45:54;;;;;;;;;7.33;7.33;;;;;24.16;43.12;101467.97;5026714;28;45472;-67
2023/06/05 10:48:20;;;;;;;;;6.33;6.33;;;;;24.20;42.90;101469.38;5019737;28;45610;-67
2023/06/05 10:50:45;;;;;;;;;6.33;5.00;;;;;24.25;42.92;101467.03;5034056;28;45432;-68
2023/06/05 10:53:46;;;;;;;;;8.00;6.67;;;;;24.42;43.01;101480.72;5032877;28;46241;-68
2023/06/05 10:56:50;;;;;;;;;4.33;4.33;;;;;24.38;43.23;101463.06;5033255;28;45514;-67
2023/06/05 10:59:17;;;;;;;;;11.00;6.00;;;;;24.38;43.04;101463.06;5030937;28;45416;-67
2023/06/05 11:01:42;;;;;;;;;7.00;5.33;;;;;24.37;43.40;101451.38;5033365;28;45686;-67
2023/06/05 11:04:08;;;;;;;;;8.33;7.00;;;;;24.42;43.19;101461.75;5033076;28;45522;-66
2023/06/05 11:06:33;;;;;;;;;9.67;8.00;;;;;24.42;42.12;101451.75;5032453;28;45800;-66
2023/06/05 11:09:15;;;;;;;;;6.00;6.00;;;;;24.52;41.77;101470.63;5025448;28;45475;-65
2023/06/05 11:11:59;;;;;;;;;5.67;5.00;;;;;24.49;42.03;101465.53;5029021;28;45475;-65
2023/06/05 11:14:42;;;;;;;;;7.00;7.00;;;;;24.45;42.10;101464.97;5033574;28;45542;-65
2023/06/05 11:17:33;;;;;;;;;7.67;7.00;;;;;24.43;41.87;101464.31;5022541;28;45436;-65
2023/06/05 11:20:00;;;;;;;;;7.00;7.00;;;;;24.34;42.22;101451.69;5025703;28;45485;-68
2023/06/05 11:22:26;;;;;;;;;6.33;6.33;;;;;24.30;42.30;101442.16;5032255;28;45549;-68
2023/06/05 11:25:26;;;;;;;;;8.67;8.67;;;;;24.41;42.32;101452.78;5033714;28;46237;-68
2023/06/05 11:28:05;;;;;;;;;10.00;7.00;;;;;24.34;42.27;101446.25;5022729;28;45585;-68
2023/06/05 11:30:33;;;;;;;;;7.33;7.00;;;;;24.27;42.09;101435.19;5033469;28;45518;-65
2023/06/05 11:33:13;;;;;;;;;9.00;7.33;;;;;24.30;42.33;101432.16;5020918;28;45547;-65
2023/06/05 11:35:40;;;;;;;;;7.00;7.00;;;;;24.35;42.38;101442.53;5019350;28;45527;-65
2023/06/05 11:38:16;;;;;;;;;7.67;7.67;;;;;24.41;42.42;101449.19;5023280;28;45413;-65
2023/06/05 11:40:44;;;;;;;;;5.33;5.00;;;;;24.31;42.15;101433.84;5020673;28;45533;-65
2023/06/05 11:43:12;;;;;;;;;7.33;7.33;;;;;24.30;41.96;101417.72;5034356;28;46118;-65
2023/06/05 11:45:39;;;;;;;;;8.33;8.33;;;;;24.37;42.48;101436.94;5022087;28;45618;-66
2023/06/05 11:48:09;;;;;;;;;8.00;8.00;;;;;24.39;42.38;101422.22;5020247;28;45456;-66
2023/06/05 11:50:40;;;;;;;;;7.67;5.67;;;;;24.39;42.60;101426.81;5021395;28;45471;-66
2023/06/05 11:53:14;;;;;;;;;7.67;7.00;;;;;24.34;42.40;101427.25;5026863;28;45496;-65
2023/06/05 11:58:26;;;;;;;;;8.00;6.00;;;;;24.35;42.42;101426.25;5034645;28;45848;-65
2023/06/05 12:01:03;;;;;;;;;6.67;6.67;;;;;24.37;42.91;101429.66;5030114;28;45338;-65
2023/06/05 12:03:28;;;;;;;;;7.33;7.33;;;;;24.29;42.81;101410.63;5033320;28;45468;-65
2023/06/05 12:05:53;;;;;;;;;7.00;6.67;;;;;24.26;42.47;101406.34;5022108;28;45513;-65
2023/06/05 12:08:24;;;;;;;;;6.33;6.33;;;;;24.24;43.02;101419.22;5034019;28;45577;-66
2023/06/05 12:10:50;;;;;;;;;9.00;7.67;;;;;24.30;42.33;101417.72;5033092;28;45390;-66
2023/06/05 12:13:16;;;;;;;;;8.00;7.67;;;;;24.22;42.84;101404.97;5033208;28;45447;-66
2023/06/05 12:15:41;;;;;;;;;7.33;7.00;;;;;24.29;43.09;101410.63;5033186;28;45522;-66
2023/06/05 12:18:06;;;;;;;;;5.33;5.00;;;;;24.22;42.79;101413.09;5032387;28;45750;-67
2023/06/05 12:20:39;;;;;;;;;6.00;6.00;;;;;24.30;43.03;101413.16;5032799;28;45266;-67
2023/06/05 12:23:05;;;;;;;;;6.00;6.00;;;;;24.26;42.82;101397.34;5030597;28;45479;-66
2023/06/05 12:25:30;;;;;;;;;7.67;7.00;;;;;24.28;42.91;101401.59;5030235;28;46445;-67
2023/06/05 12:27:56;;;;;;;;;6.33;6.33;;;;;24.27;42.72;101394.50;5038346;28;45482;-67
2023/06/05 12:30:21;;;;;;;;;7.00;7.00;;;;;24.35;42.67;101401.84;5032507;28;45430;-67
2023/06/05 12:32:48;;;;;;;;;6.00;6.00;;;;;24.34;42.63;101403.72;5032524;28;45503;-66
2023/06/05 12:35:24;;;;;;;;;6.33;6.33;;;;;24.31;43.03;101392.31;5032477;28;45803;-67
2023/06/05 12:37:50;;;;;;;;;5.67;5.67;;;;;24.32;42.83;101400.28;5032858;28;45564;-69
2023/06/05 12:40:20;;;;;;;;;7.00;6.00;;;;;24.37;42.65;101398.97;5032358;28;45530;-70
2023/06/05 12:42:47;;;;;;;;;6.00;5.00;;;;;24.32;42.82;101394.88;5032603;28;45351;-70
2023/06/05 12:45:13;;;;;;;;;6.33;6.33;;;;;24.33;42.86;101387.59;5035995;28;46457;-69
2023/06/05 12:47:40;;;;;;;;;8.67;7.67;;;;;24.49;42.97;101400.44;5038662;28;46037;-68
2023/06/05 12:50:07;;;;;;;;;6.00;6.00;;;;;24.41;42.69;101389.50;5032985;28;45438;-68
2023/06/05 12:52:33;;;;;;;;;8.00;7.67;;;;;24.37;42.83;101383.56;5031240;28;45490;-68
2023/06/05 12:54:59;;;;;;;;;5.00;5.00;;;;;24.50;43.12;101415.69;5021854;28;46537;-68
2023/06/05 12:57:25;;;;;;;;;8.00;6.67;;;;;24.41;42.85;101395.78;5033006;28;45471;-69
2023/06/05 12:59:53;;;;;;;;;7.00;7.00;;;;;24.43;42.64;101385.63;5031671;28;45413;-66
2023/06/05 13:02:19;;;;;;;;;5.33;4.67;;;;;24.50;42.70;101401.25;5029699;28;45613;-69
2023/06/05 13:04:44;;;;;;;;;6.33;6.33;;;;;24.44;42.73;101381.88;5043785;28;46443;-69
2023/06/05 13:07:11;;;;;;;;;7.00;5.33;;;;;24.44;43.04;101381.88;5032487;28;45486;-66
2023/06/05 13:09:37;;;;;;;;;5.67;5.67;;;;;24.50;43.03;101387.69;5031289;28;45546;-68
2023/06/05 13:12:03;;;;;;;;;6.33;6.00;;;;;24.45;42.58;101367.31;5041445;28;45578;-69
2023/06/05 13:14:29;;;;;;;;;6.00;6.00;;;;;24.48;42.44;101366.13;5021928;28;45437;-69
2023/06/05 13:16:56;;;;;;;;;6.67;6.67;;;;;24.50;42.68;101377.69;5027135;28;45520;-69
2023/06/05 13:19:21;;;;;;;;;6.67;6.33;;;;;24.50;42.70;101364.13;5047347;28;45333;-69
2023/06/05 13:21:47;;;;;;;;;8.00;8.00;;;;;24.51;42.57;101371.25;5030985;28;45589;-69
2023/06/05 13:24:12;;;;;;;;;7.00;6.33;;;;;24.52;42.61;101370.22;5032003;28;45538;-70
2023/06/05 13:26:37;;;;;;;;;8.33;6.00;;;;;24.54;42.77;101373.66;5047662;28;45807;-69
2023/06/05 13:29:03;;;;;;;;;10.33;8.33;;;;;24.50;42.78;101371.41;5028731;28;45479;-69
2023/06/05 13:31:28;;;;;;;;;6.67;6.67;;;;;24.52;43.41;101372.94;5024443;28;45399;-71
2023/06/05 13:33:54;;;;;;;;;7.33;7.33;;;;;24.51;43.30;101367.69;5031682;28;46288;-70
2023/06/05 13:36:19;;;;;;;;;9.33;8.67;;;;;24.52;43.46;101351.25;5031586;28;45510;-69
2023/06/05 13:38:47;;;;;;;;;9.33;8.00;;;;;24.55;43.52;101359.06;5032119;28;45451;-68
2023/06/05 13:41:12;;;;;;;;;6.67;5.00;;;;;24.56;43.36;101349.06;5029691;28;45518;-68
2023/06/05 13:43:38;;;;;;;;;9.00;9.00;;;;;24.64;42.95;101359.13;5029821;28;45974;-68
2023/06/05 13:46:03;;;;;;;;;7.67;7.00;;;;;24.58;43.42;101347.91;5031101;28;45620;-68
2023/06/05 13:48:29;;;;;;;;;12.00;7.33;;;;;24.71;43.56;101360.16;5020632;28;45423;-68
2023/06/05 13:50:56;;;;;;;;;4.67;4.67;;;;;24.63;43.65;101360.13;5031341;28;45491;-68
2023/06/05 13:53:21;;;;;;;;;6.00;6.00;;;;;24.66;43.39;101351.66;5031379;28;45434;-69
2023/06/05 13:55:46;;;;;;;;;8.00;6.67;;;;;24.66;43.49;101344.38;5031323;28;45569;-68
2023/06/05 13:58:12;;;;;;;;;5.67;5.67;;;;;24.70;43.78;101347.63;5033115;28;45514;-68
2023/06/05 14:00:37;;;;;;;;;8.00;7.33;;;;;24.64;43.95;101338.25;5028441;28;45303;-68
2023/06/05 14:03:03;;;;;;;;;7.00;6.00;;;;;24.68;44.40;101336.91;5033469;28;46169;-70
2023/06/05 14:05:30;;;;;;;;;6.00;6.00;;;;;24.81;44.36;101357.34;5027778;28;45444;-71
2023/06/05 14:07:56;;;;;;;;;6.33;6.33;;;;;24.69;44.51;101335.91;5035815;28;45516;-71
2023/06/05 14:10:23;;;;;;;;;8.00;6.00;;;;;24.80;44.56;101348.34;5033637;28;45472;-71
2023/06/05 14:12:50;;;;;;;;;0.00;0.00;;;;;24.75;44.22;101339.84;5034031;28;46428;-71
2023/06/05 14:15:17;;;;;;;;;8.00;6.33;;;;;24.79;44.40;101341.22;5035967;28;45636;-68
2023/06/05 14:17:44;;;;;;;;;4.00;4.00;;;;;24.81;44.51;101346.50;5034276;28;45318;-68
2023/06/05 14:20:10;;;;;;;;;7.00;7.00;;;;;24.73;44.27;101326.41;5034441;28;45450;-71
2023/06/05 14:22:36;;;;;;;;;8.00;8.00;;;;;24.86;44.43;101355.03;5029880;28;46849;-71
2023/06/05 14:25:01;;;;;;;;;8.33;8.00;;;;;24.86;45.22;101344.16;5034982;28;45642;-71
2023/06/05 14:27:27;;;;;;;;;7.33;6.67;;;;;24.88;44.46;101341.28;5028572;28;45433;-71
2023/06/05 14:29:52;;;;;;;;;7.00;5.33;;;;;24.90;44.75;101353.69;5028476;28;45427;-71
2023/06/05 14:32:17;;;;;;;;;7.00;7.00;;;;;24.89;44.86;101348.41;5028249;28;46309;-71
2023/06/05 14:34:43;;;;;;;;;7.00;6.00;;;;;24.86;44.76;101336.00;5034171;28;45671;-70
2023/06/05 14:37:08;;;;;;;;;8.00;6.67;;;;;24.92;44.89;101348.06;5034833;28;45583;-70
2023/06/05 14:39:33;;;;;;;;;5.67;5.67;;;;;24.90;44.68;101342.81;5034950;28;45720;-69
2023/06/05 14:42:00;;;;;;;;;7.00;5.00;;;;;24.92;44.74;101354.34;5034241;28;46055;-71
2023/06/05 14:44:25;;;;;;;;;7.67;7.67;;;;;24.92;44.92;101339.91;5034544;28;45599;-71
2023/06/05 14:46:54;;;;;;;;;5.00;5.00;;;;;24.93;44.75;101345.19;5034144;28;45365;-71
2023/06/05 14:49:19;;;;;;;;;5.33;5.00;;;;;24.92;44.75;101335.34;5032123;28;45447;-72
2023/06/05 14:51:44;;;;;;;;;6.00;5.00;;;;;24.92;44.52;101327.22;5033537;28;45929;-71
2023/06/05 14:54:10;;;;;;;;;7.00;5.33;;;;;24.94;44.85;101336.06;5034066;28;45480;-72
2023/06/05 14:56:35;;;;;;;;;6.00;6.00;;;;;24.94;44.81;101332.47;5034560;28;45508;-72
2023/06/05 14:59:00;;;;;;;;;5.33;5.00;;;;;24.95;44.75;101334.19;5034405;28;45577;-72
2023/06/05 15:01:26;;;;;;;;;7.00;5.67;;;;;24.94;44.42;101332.47;5032529;28;49751;-71
2023/06/05 15:03:51;;;;;;;;;6.00;6.00;;;;;24.93;44.68;101337.06;5034599;28;45423;-71
2023/06/05 15:06:16;;;;;;;;;6.00;6.00;;;;;24.96;44.46;101327.72;5036880;28;45771;-72
2023/06/05 15:08:42;;;;;;;;;5.00;5.00;;;;;24.97;44.34;101322.13;5033665;28;45680;-69
2023/06/05 15:11:07;;;;;;;;;6.00;6.00;;;;;24.96;44.60;101325.00;5030543;28;46395;-70
2023/06/05 15:13:32;;;;;;;;;7.33;6.00;;;;;24.97;44.55;101324.03;5026351;28;46007;-69
2023/06/05 15:15:59;;;;;;;;;3.00;3.00;;;;;24.97;44.29;101321.31;5031965;28;47555;-69
2023/06/05 15:18:25;;;;;;;;;6.33;6.33;;;;;24.98;44.50;101320.28;5034009;28;45636;-70
2023/06/05 15:20:50;;;;;;;;;6.00;6.00;;;;;24.98;44.43;101331.16;5031630;28;45840;-70
2023/06/05 15:23:16;;;;;;;;;9.00;6.00;;;;;24.95;44.30;101324.19;5033759;28;45406;-71
2023/06/05 15:25:41;;;;;;;;;6.00;5.00;;;;;24.97;44.30;101322.13;5036116;28;45444;-68
2023/06/05 15:28:06;;;;;;;;;5.00;5.00;;;;;24.98;44.48;101323.81;5035507;28;45516;-70
2023/06/05 15:30:32;;;;;;;;;5.00;5.00;;;;;24.99;43.86;101321.97;5028593;28;59834;-70
2023/06/05 15:32:57;;;;;;;;;6.00;6.00;;;;;24.98;44.35;101321.13;5027518;28;45420;-69
2023/06/05 15:35:24;;;;;;;;;6.00;6.00;;;;;24.98;44.33;101314.84;5033894;28;45362;-69
2023/06/05 15:37:50;;;;;;;;;5.67;5.67;;;;;25.00;44.34;101319.09;5033966;28;45442;-72
2023/06/05 15:40:15;;;;;;;;;5.33;5.33;;;;;24.99;44.23;101311.13;5033615;28;45653;-71
2023/06/05 15:42:42;;;;;;;;;8.67;5.67;;;;;25.01;44.35;101319.94;5033450;28;45661;-70
2023/06/05 15:45:10;;;;;;;;;6.00;6.00;;;;;24.99;44.12;101302.97;5042489;28;45471;-71
2023/06/05 15:47:37;;;;;;;;;5.67;5.00;;;;;25.02;43.84;101312.66;5033439;28;45707;-71
2023/06/05 15:50:04;;;;;;;;;7.00;6.00;;;;;25.00;43.90;101302.81;5033286;28;46120;-71
2023/06/05 15:52:30;;;;;;;;;5.00;3.67;;;;;25.01;44.31;101303.63;5033591;28;45466;-71
2023/06/05 15:54:57;;;;;;;;;5.00;5.00;;;;;24.98;43.89;101299.38;5029866;28;45467;-70
2023/06/05 15:57:22;;;;;;;;;4.67;4.33;;;;;24.95;43.91;101288.88;5028386;28;45558;-70
2023/06/05 15:59:48;;;;;;;;;6.00;4.00;;;;;25.01;43.92;101298.22;5023943;28;60869;-69
2023/06/05 16:02:13;;;;;;;;;5.00;5.00;;;;;24.97;43.89;101303.13;5032216;28;51486;-70
2023/06/05 16:04:38;;;;;;;;;7.00;6.00;;;;;24.94;43.95;101300.75;5031719;28;45433;-69
2023/06/05 16:07:04;;;;;;;;;5.00;5.00;;;;;24.94;44.19;101299.91;5033240;28;55983;-69
2023/06/05 16:09:29;;;;;;;;;5.00;5.00;;;;;24.92;43.68;101299.19;5032629;28;45690;-70
2023/06/05 16:11:54;;;;;;;;;4.33;4.33;;;;;24.88;43.88;101287.00;5033738;28;45571;-70
2023/06/05 16:14:20;;;;;;;;;4.67;4.67;;;;;24.88;43.90;101287.00;5032754;28;46821;-70
2023/06/05 16:16:45;;;;;;;;;4.67;4.67;;;;;24.86;43.79;101287.16;5033207;28;45487;-70
2023/06/05 16:19:11;;;;;;;;;5.00;5.00;;;;;24.85;43.79;101288.16;5033007;28;45602;-70
2023/06/05 16:21:37;;;;;;;;;6.33;6.33;;;;;24.85;43.81;101285.47;5023175;28;45685;-71
2023/06/05 16:24:03;;;;;;;;;6.67;6.67;;;;;24.84;44.14;101292.75;5033731;28;46451;-71
2023/06/05 16:26:28;;;;;;;;;5.00;5.00;;;;;24.82;44.00;101286.59;5029571;28;45485;-69
2023/06/05 16:28:54;;;;;;;;;13.67;8.00;;;;;24.82;43.85;101289.31;5024256;28;45784;-69
2023/06/05 16:31:19;;;;;;;;;8.33;6.00;;;;;24.82;43.91;101286.59;5014012;28;46311;-69
2023/06/05 16:33:44;;;;;;;;;4.67;4.00;;;;;24.84;43.92;101290.03;5022382;28;45814;-69
2023/06/05 16:36:10;;;;;;;;;6.33;5.67;;;;;24.83;43.80;101282.91;5031572;28;45832;-70
2023/06/05 16:38:35;;;;;;;;;9.00;7.00;;;;;24.80;43.77;101282.34;5041756;28;46023;-69
2023/06/05 16:41:01;;;;;;;;;6.33;5.33;;;;;24.80;43.72;101287.78;5032777;28;45753;-70
2023/06/05 16:43:26;;;;;;;;;6.00;6.00;;;;;24.80;43.69;101291.31;5032822;28;45499;-69
2023/06/05 16:45:54;;;;;;;;;6.00;4.67;;;;;24.73;44.08;101280.28;5033172;28;45446;-69
2023/06/05 16:48:20;;;;;;;;;5.33;5.00;;;;;24.78;44.10;101289.78;5032439;28;46178;-70
2023/06/05 16:50:48;;;;;;;;;7.00;7.00;;;;;24.78;43.64;101287.06;5031313;28;45797;-69
2023/06/05 16:53:14;;;;;;;;;7.33;6.33;;;;;24.74;43.71;101281.13;5032170;28;45353;-69
2023/06/05 16:55:39;;;;;;;;;6.00;6.00;;;;;24.74;43.75;101281.13;5032549;28;46783;-70
2023/06/05 16:58:05;;;;;;;;;7.67;6.00;;;;;24.74;43.59;101292.00;5032271;28;45585;-70
2023/06/05 17:00:30;;;;;;;;;9.33;6.33;;;;;24.74;43.72;101281.97;5032067;28;45423;-70
2023/06/05 17:02:55;;;;;;;;;7.00;5.67;;;;;24.71;43.96;101273.31;5032050;28;45405;-70
2023/06/05 17:05:21;;;;;;;;;7.00;7.00;;;;;24.74;43.36;101283.84;5021981;28;45588;-67